AAL1348 MMMZ-KDFW
Flight info
| Callsign | AAL1348 |
|---|---|
| Flight time | 2h 15m |
| Altitude | 35000 |
| Route | MZT5B MZT UJ20 MOV UJ31 PNG DCT CSI DCT GUTZZ BOOVE7 |
| Aircraft | A319/M-SDE3FGHIRWY/LB1 |
Departure
| Time | 2026-05-04 00:06 |
|---|---|
| Airport | General Rafael Buelna International Airport (MMMZ) |
Arrival
| Time | 2026-05-04 02:22 |
|---|---|
| Airport | Dallas Fort Worth International Airport (KDFW) |
| Time | Latitude | Longitude | Altitude | Speed | Heading |
|---|---|---|---|---|---|
| 2026-05-03 23:35 | 23.16560 | -106.26879 | 31 ft | 0 kts | 237° |
| 2026-05-03 23:58 | 23.16557 | -106.26884 | 32 ft | 4 kts | 237° |
| 2026-05-03 23:58 | 23.16542 | -106.26909 | 30 ft | 4 kts | 237° |
| 2026-05-03 23:59 | 23.16541 | -106.26911 | 31 ft | 0 kts | 237° |
| 2026-05-04 00:01 | 23.16523 | -106.26915 | 31 ft | 6 kts | 174° |
| 2026-05-04 00:01 | 23.16470 | -106.26889 | 32 ft | 8 kts | 130° |
| 2026-05-04 00:01 | 23.16453 | -106.26870 | 32 ft | 0 kts | 140° |
| 2026-05-04 00:02 | 23.16421 | -106.26855 | 36 ft | 10 kts | 179° |
| 2026-05-04 00:02 | 23.16343 | -106.26857 | 33 ft | 13 kts | 182° |
| 2026-05-04 00:02 | 23.16255 | -106.26795 | 31 ft | 18 kts | 127° |
| 2026-05-04 00:03 | 23.16182 | -106.26665 | 34 ft | 22 kts | 116° |
| 2026-05-04 00:03 | 23.16149 | -106.26484 | 35 ft | 27 kts | 97° |
| 2026-05-04 00:03 | 23.16137 | -106.26264 | 36 ft | 31 kts | 93° |
| 2026-05-04 00:03 | 23.16123 | -106.26022 | 39 ft | 33 kts | 94° |
| 2026-05-04 00:04 | 23.16110 | -106.25760 | 40 ft | 36 kts | 93° |
| 2026-05-04 00:04 | 23.16098 | -106.25480 | 42 ft | 38 kts | 93° |
| 2026-05-04 00:04 | 23.16103 | -106.25221 | 41 ft | 22 kts | 75° |
| 2026-05-04 00:04 | 23.16088 | -106.25186 | 42 ft | 4 kts | 261° |
| 2026-05-04 00:05 | 23.16087 | -106.25213 | 43 ft | 0 kts | 273° |
| 2026-05-04 00:05 | 23.16087 | -106.25215 | 43 ft | 1 kts | 273° |
| 2026-05-04 00:05 | 23.16087 | -106.25221 | 43 ft | 0 kts | 273° |
| 2026-05-04 00:05 | 23.16097 | -106.25399 | 42 ft | 57 kts | 273° |
| 2026-05-04 00:06 | 23.16133 | -106.26067 | 37 ft | 120 kts | 272° |
| 2026-05-04 00:06 | 23.16185 | -106.27143 | 240 ft | 147 kts | 274° |
| 2026-05-04 00:06 | 23.16259 | -106.28221 | 840 ft | 143 kts | 272° |
| 2026-05-04 00:06 | 23.16286 | -106.29303 | 1360 ft | 144 kts | 271° |
| 2026-05-04 00:07 | 23.16309 | -106.30387 | 1812 ft | 143 kts | 272° |
| 2026-05-04 00:07 | 23.16334 | -106.31478 | 2149 ft | 146 kts | 270° |
| 2026-05-04 00:07 | 23.16360 | -106.32587 | 2454 ft | 148 kts | 271° |
| 2026-05-04 00:07 | 23.16388 | -106.33707 | 2763 ft | 147 kts | 271° |
| 2026-05-04 00:08 | 23.16418 | -106.34850 | 2920 ft | 157 kts | 270° |
| 2026-05-04 00:08 | 23.16449 | -106.36090 | 3054 ft | 172 kts | 269° |
| 2026-05-04 00:08 | 23.16483 | -106.37434 | 3137 ft | 193 kts | 269° |
| 2026-05-04 00:08 | 23.16525 | -106.38999 | 3231 ft | 219 kts | 269° |
| 2026-05-04 00:09 | 23.16574 | -106.40724 | 3472 ft | 240 kts | 270° |
| 2026-05-04 00:09 | 23.16429 | -106.42548 | 3975 ft | 246 kts | 248° |
| 2026-05-04 00:09 | 23.15377 | -106.44039 | 4360 ft | 260 kts | 211° |
| 2026-05-04 00:09 | 23.13628 | -106.44566 | 4972 ft | 268 kts | 176° |
| 2026-05-04 00:10 | 23.11883 | -106.43880 | 5668 ft | 275 kts | 143° |
| 2026-05-04 00:10 | 23.10756 | -106.42203 | 6365 ft | 283 kts | 109° |
| 2026-05-04 00:10 | 23.10648 | -106.40066 | 6994 ft | 292 kts | 76° |
| 2026-05-04 00:10 | 23.11626 | -106.38148 | 7655 ft | 295 kts | 44° |
| 2026-05-04 00:11 | 23.13199 | -106.36704 | 8354 ft | 298 kts | 37° |
| 2026-05-04 00:11 | 23.14842 | -106.35319 | 9066 ft | 300 kts | 34° |
| 2026-05-04 00:11 | 23.16350 | -106.33739 | 9705 ft | 308 kts | 57° |
| 2026-05-04 00:11 | 23.17030 | -106.31531 | 10265 ft | 315 kts | 83° |
| 2026-05-04 00:12 | 23.17011 | -106.29070 | 10400 ft | 338 kts | 95° |
| 2026-05-04 00:12 | 23.17011 | -106.26445 | 10548 ft | 356 kts | 82° |
| 2026-05-04 00:12 | 23.17751 | -106.23866 | 10976 ft | 361 kts | 61° |
| 2026-05-04 00:12 | 23.19033 | -106.21511 | 11521 ft | 363 kts | 57° |
| 2026-05-04 00:13 | 23.20388 | -106.19184 | 12076 ft | 366 kts | 56° |
| 2026-05-04 00:13 | 23.21755 | -106.16877 | 12622 ft | 369 kts | 56° |
| 2026-05-04 00:13 | 23.23145 | -106.14521 | 13163 ft | 372 kts | 56° |
| 2026-05-04 00:13 | 23.24534 | -106.12134 | 13699 ft | 375 kts | 56° |
| 2026-05-04 00:14 | 23.25920 | -106.09713 | 14164 ft | 379 kts | 56° |
| 2026-05-04 00:14 | 23.27305 | -106.07265 | 14645 ft | 381 kts | 57° |
| 2026-05-04 00:14 | 23.28687 | -106.04805 | 15139 ft | 383 kts | 57° |
| 2026-05-04 00:14 | 23.30082 | -106.02323 | 15635 ft | 385 kts | 56° |
| 2026-05-04 00:15 | 23.31479 | -105.99831 | 16122 ft | 387 kts | 56° |
| 2026-05-04 00:15 | 23.32887 | -105.97324 | 16605 ft | 389 kts | 56° |
| 2026-05-04 00:15 | 23.34304 | -105.94806 | 17088 ft | 391 kts | 56° |
| 2026-05-04 00:15 | 23.35726 | -105.92279 | 17571 ft | 393 kts | 56° |
| 2026-05-04 00:16 | 23.37156 | -105.89741 | 18040 ft | 395 kts | 56° |
| 2026-05-04 00:16 | 23.38597 | -105.87183 | 18476 ft | 397 kts | 56° |
| 2026-05-04 00:16 | 23.40048 | -105.84606 | 18859 ft | 400 kts | 56° |
| 2026-05-04 00:16 | 23.41505 | -105.82016 | 19270 ft | 403 kts | 55° |
| 2026-05-04 00:17 | 23.42974 | -105.79402 | 19687 ft | 406 kts | 55° |
| 2026-05-04 00:17 | 23.44452 | -105.76774 | 20110 ft | 409 kts | 55° |
| 2026-05-04 00:17 | 23.45943 | -105.74122 | 20525 ft | 412 kts | 55° |
| 2026-05-04 00:17 | 23.47445 | -105.71447 | 20901 ft | 416 kts | 55° |
| 2026-05-04 00:18 | 23.48953 | -105.68754 | 21210 ft | 418 kts | 56° |
| 2026-05-04 00:18 | 23.50479 | -105.66029 | 21478 ft | 423 kts | 55° |
| 2026-05-04 00:18 | 23.52011 | -105.63291 | 21924 ft | 425 kts | 55° |
| 2026-05-04 00:18 | 23.53555 | -105.60535 | 22322 ft | 427 kts | 56° |
| 2026-05-04 00:19 | 23.55107 | -105.57763 | 22778 ft | 429 kts | 55° |
| 2026-05-04 00:19 | 23.56667 | -105.54971 | 23054 ft | 433 kts | 55° |
| 2026-05-04 00:19 | 23.58238 | -105.52154 | 23410 ft | 436 kts | 55° |
| 2026-05-04 00:19 | 23.59798 | -105.49355 | 23734 ft | 439 kts | 55° |
| 2026-05-04 00:20 | 23.61390 | -105.46497 | 24029 ft | 443 kts | 55° |
| 2026-05-04 00:20 | 23.62991 | -105.43618 | 24309 ft | 446 kts | 55° |
| 2026-05-04 00:20 | 23.64603 | -105.40716 | 24613 ft | 448 kts | 55° |
| 2026-05-04 00:20 | 23.66221 | -105.37809 | 24929 ft | 449 kts | 55° |
| 2026-05-04 00:21 | 23.67848 | -105.34889 | 25212 ft | 452 kts | 55° |
| 2026-05-04 00:21 | 23.69484 | -105.31954 | 25490 ft | 454 kts | 55° |
| 2026-05-04 00:21 | 23.71129 | -105.29000 | 25785 ft | 456 kts | 55° |
| 2026-05-04 00:21 | 23.72778 | -105.26031 | 26065 ft | 460 kts | 55° |
| 2026-05-04 00:22 | 23.74438 | -105.23037 | 26315 ft | 463 kts | 55° |
| 2026-05-04 00:22 | 23.76108 | -105.20026 | 26589 ft | 465 kts | 55° |
| 2026-05-04 00:22 | 23.77783 | -105.17003 | 26878 ft | 466 kts | 55° |
| 2026-05-04 00:22 | 23.79467 | -105.13970 | 27161 ft | 468 kts | 55° |
| 2026-05-04 00:23 | 23.81161 | -105.10924 | 27451 ft | 470 kts | 54° |
| 2026-05-04 00:23 | 23.82862 | -105.07864 | 27720 ft | 473 kts | 55° |
| 2026-05-04 00:23 | 23.84568 | -105.04786 | 27970 ft | 475 kts | 55° |
| 2026-05-04 00:23 | 23.86278 | -105.01692 | 28266 ft | 477 kts | 55° |
| 2026-05-04 00:24 | 23.87992 | -104.98583 | 28551 ft | 478 kts | 55° |
| 2026-05-04 00:24 | 23.89711 | -104.95466 | 28811 ft | 481 kts | 55° |
| 2026-05-04 00:24 | 23.91441 | -104.92329 | 29018 ft | 482 kts | 55° |
| 2026-05-04 00:24 | 23.93172 | -104.89190 | 29320 ft | 483 kts | 54° |
| 2026-05-04 00:25 | 23.94909 | -104.86040 | 29622 ft | 484 kts | 54° |
| 2026-05-04 00:25 | 23.96647 | -104.82885 | 29919 ft | 485 kts | 54° |
| 2026-05-04 00:25 | 23.98391 | -104.79723 | 30182 ft | 487 kts | 54° |
| 2026-05-04 00:25 | 24.00142 | -104.76546 | 30425 ft | 489 kts | 54° |
| 2026-05-04 00:26 | 24.01900 | -104.73355 | 30656 ft | 490 kts | 54° |
| 2026-05-04 00:26 | 24.03640 | -104.70196 | 30891 ft | 492 kts | 54° |
| 2026-05-04 00:26 | 24.05404 | -104.66992 | 31176 ft | 492 kts | 54° |
| 2026-05-04 00:26 | 24.07165 | -104.63783 | 31482 ft | 491 kts | 54° |
| 2026-05-04 00:27 | 24.08919 | -104.60578 | 31802 ft | 491 kts | 54° |
| 2026-05-04 00:27 | 24.10670 | -104.57377 | 32096 ft | 490 kts | 54° |
| 2026-05-04 00:27 | 24.12505 | -104.54241 | 32381 ft | 486 kts | 48° |
| 2026-05-04 00:27 | 24.14683 | -104.51450 | 32682 ft | 479 kts | 39° |
| 2026-05-04 00:28 | 24.17167 | -104.49077 | 32987 ft | 471 kts | 30° |
| 2026-05-04 00:28 | 24.19835 | -104.47026 | 33296 ft | 468 kts | 28° |
| 2026-05-04 00:28 | 24.22511 | -104.44986 | 33585 ft | 468 kts | 28° |
| 2026-05-04 00:28 | 24.25177 | -104.42945 | 33879 ft | 467 kts | 28° |
| 2026-05-04 00:29 | 24.27834 | -104.40904 | 34169 ft | 466 kts | 28° |
| 2026-05-04 00:29 | 24.30486 | -104.38864 | 34429 ft | 465 kts | 28° |
| 2026-05-04 00:29 | 24.33130 | -104.36825 | 34668 ft | 465 kts | 28° |
| 2026-05-04 00:29 | 24.35785 | -104.34779 | 34838 ft | 466 kts | 28° |
| 2026-05-04 00:30 | 24.41085 | -104.30694 | 34867 ft | 464 kts | 28° |
| 2026-05-04 00:30 | 24.46365 | -104.26633 | 34861 ft | 463 kts | 28° |
| 2026-05-04 00:31 | 24.51643 | -104.22566 | 34860 ft | 463 kts | 28° |
| 2026-05-04 00:31 | 24.56866 | -104.18522 | 34862 ft | 461 kts | 28° |
| 2026-05-04 00:32 | 24.62108 | -104.14465 | 34867 ft | 461 kts | 28° |
| 2026-05-04 00:32 | 24.67349 | -104.10410 | 34882 ft | 461 kts | 27° |
| 2026-05-04 00:33 | 24.75211 | -104.04319 | 34876 ft | 461 kts | 27° |
| 2026-05-04 00:34 | 24.80443 | -104.00249 | 34872 ft | 461 kts | 27° |
| 2026-05-04 00:34 | 24.85679 | -103.96179 | 34873 ft | 461 kts | 27° |
| 2026-05-04 00:35 | 24.90914 | -103.92116 | 34874 ft | 460 kts | 27° |
| 2026-05-04 00:35 | 24.96149 | -103.88041 | 34875 ft | 461 kts | 27° |
| 2026-05-04 00:36 | 25.01382 | -103.83966 | 34908 ft | 461 kts | 27° |
| 2026-05-04 00:36 | 25.06585 | -103.79916 | 34895 ft | 461 kts | 27° |
| 2026-05-04 00:37 | 25.11813 | -103.75830 | 34891 ft | 461 kts | 27° |
| 2026-05-04 00:37 | 25.17038 | -103.71738 | 34886 ft | 460 kts | 27° |
| 2026-05-04 00:38 | 25.22266 | -103.67648 | 34882 ft | 460 kts | 27° |
| 2026-05-04 00:38 | 25.27492 | -103.63558 | 34882 ft | 461 kts | 27° |
| 2026-05-04 00:39 | 25.32727 | -103.59461 | 34948 ft | 461 kts | 27° |
| 2026-05-04 00:39 | 25.37971 | -103.55346 | 34957 ft | 463 kts | 27° |
| 2026-05-04 00:40 | 25.43229 | -103.51219 | 34987 ft | 464 kts | 27° |
| 2026-05-04 00:40 | 25.47609 | -103.47775 | 35014 ft | 465 kts | 28° |
| 2026-05-04 00:41 | 25.53732 | -103.42949 | 35037 ft | 465 kts | 28° |
| 2026-05-04 00:41 | 25.58512 | -103.37988 | 35040 ft | 481 kts | 44° |
| 2026-05-04 00:42 | 25.62029 | -103.33156 | 35043 ft | 481 kts | 44° |
| 2026-05-04 00:42 | 25.66208 | -103.27440 | 35018 ft | 480 kts | 44° |
| 2026-05-04 00:43 | 25.70422 | -103.21689 | 34978 ft | 480 kts | 44° |
| 2026-05-04 00:43 | 25.74624 | -103.15927 | 34935 ft | 480 kts | 44° |
| 2026-05-04 00:44 | 25.78819 | -103.10170 | 34900 ft | 479 kts | 43° |
| 2026-05-04 00:44 | 25.83006 | -103.04419 | 34915 ft | 479 kts | 43° |
| 2026-05-04 00:45 | 25.87189 | -102.98678 | 34916 ft | 478 kts | 43° |
| 2026-05-04 00:45 | 25.91361 | -102.92934 | 34912 ft | 477 kts | 43° |
| 2026-05-04 00:46 | 25.95528 | -102.87186 | 34925 ft | 477 kts | 43° |
| 2026-05-04 00:46 | 25.99659 | -102.81490 | 34939 ft | 477 kts | 43° |
| 2026-05-04 00:47 | 26.03823 | -102.75741 | 34921 ft | 478 kts | 43° |
| 2026-05-04 00:47 | 26.07987 | -102.69971 | 34931 ft | 479 kts | 44° |
| 2026-05-04 00:48 | 26.12164 | -102.64182 | 34931 ft | 480 kts | 44° |
| 2026-05-04 00:48 | 26.16345 | -102.58392 | 34944 ft | 480 kts | 44° |
| 2026-05-04 00:49 | 26.20523 | -102.52589 | 34953 ft | 480 kts | 44° |
| 2026-05-04 00:49 | 26.24699 | -102.46783 | 34974 ft | 480 kts | 44° |
| 2026-05-04 00:50 | 26.28876 | -102.40967 | 34977 ft | 481 kts | 44° |
| 2026-05-04 00:50 | 26.33051 | -102.35147 | 34980 ft | 481 kts | 44° |
| 2026-05-04 00:51 | 26.37234 | -102.29316 | 35008 ft | 482 kts | 44° |
| 2026-05-04 00:51 | 26.41418 | -102.23467 | 35001 ft | 482 kts | 44° |
| 2026-05-04 00:52 | 26.45601 | -102.17605 | 35017 ft | 483 kts | 44° |
| 2026-05-04 00:52 | 26.49786 | -102.11738 | 35018 ft | 483 kts | 44° |
| 2026-05-04 00:53 | 26.53966 | -102.05873 | 35016 ft | 483 kts | 44° |
| 2026-05-04 00:53 | 26.58146 | -102.00003 | 35029 ft | 483 kts | 44° |
| 2026-05-04 00:54 | 26.62331 | -101.94126 | 35016 ft | 483 kts | 44° |
| 2026-05-04 00:54 | 26.66509 | -101.88242 | 35029 ft | 483 kts | 44° |
| 2026-05-04 00:55 | 26.70687 | -101.82342 | 35037 ft | 485 kts | 44° |
| 2026-05-04 00:55 | 26.74847 | -101.76472 | 35015 ft | 485 kts | 44° |
| 2026-05-04 00:56 | 26.79037 | -101.70547 | 35018 ft | 486 kts | 44° |
| 2026-05-04 00:56 | 26.83227 | -101.64613 | 35036 ft | 485 kts | 44° |
| 2026-05-04 00:57 | 26.87404 | -101.58680 | 35042 ft | 485 kts | 44° |
| 2026-05-04 00:57 | 26.91581 | -101.52738 | 35034 ft | 485 kts | 44° |
| 2026-05-04 00:58 | 26.96175 | -101.47373 | 35038 ft | 469 kts | 29° |
| 2026-05-04 00:58 | 26.98843 | -101.45357 | 35036 ft | 458 kts | 20° |
| 2026-05-04 00:58 | 27.01663 | -101.43754 | 35040 ft | 453 kts | 16° |
| 2026-05-04 00:59 | 27.07354 | -101.40665 | 35013 ft | 455 kts | 16° |
| 2026-05-04 00:59 | 27.13056 | -101.37541 | 35007 ft | 457 kts | 16° |
| 2026-05-04 01:00 | 27.18735 | -101.34415 | 35013 ft | 458 kts | 17° |
| 2026-05-04 01:00 | 27.24456 | -101.31258 | 35016 ft | 459 kts | 17° |
| 2026-05-04 01:01 | 27.30186 | -101.28105 | 35034 ft | 458 kts | 17° |
| 2026-05-04 01:01 | 27.35903 | -101.24955 | 35035 ft | 457 kts | 17° |
| 2026-05-04 01:02 | 27.41619 | -101.21798 | 35034 ft | 457 kts | 17° |
| 2026-05-04 01:02 | 27.47323 | -101.18651 | 35033 ft | 457 kts | 17° |
| 2026-05-04 01:03 | 27.53034 | -101.15496 | 35033 ft | 457 kts | 17° |
| 2026-05-04 01:03 | 27.58715 | -101.12350 | 35034 ft | 457 kts | 17° |
| 2026-05-04 01:04 | 27.64423 | -101.09186 | 35050 ft | 458 kts | 17° |
| 2026-05-04 01:04 | 27.70143 | -101.06013 | 35037 ft | 458 kts | 17° |
| 2026-05-04 01:05 | 27.75871 | -101.02827 | 35032 ft | 459 kts | 17° |
| 2026-05-04 01:05 | 27.81606 | -100.99640 | 35040 ft | 459 kts | 17° |
| 2026-05-04 01:06 | 27.87342 | -100.96450 | 35037 ft | 459 kts | 17° |
| 2026-05-04 01:06 | 27.93074 | -100.93251 | 35038 ft | 460 kts | 17° |
| 2026-05-04 01:07 | 27.98814 | -100.90039 | 35053 ft | 460 kts | 17° |
| 2026-05-04 01:07 | 28.04563 | -100.86824 | 35050 ft | 461 kts | 17° |
| 2026-05-04 01:08 | 28.10314 | -100.83612 | 35043 ft | 461 kts | 17° |
| 2026-05-04 01:08 | 28.16064 | -100.80390 | 35042 ft | 461 kts | 17° |
| 2026-05-04 01:09 | 28.21808 | -100.77159 | 35044 ft | 461 kts | 17° |
| 2026-05-04 01:09 | 28.27514 | -100.73948 | 35067 ft | 460 kts | 15° |
| 2026-05-04 01:10 | 28.33255 | -100.70730 | 35069 ft | 460 kts | 15° |
| 2026-05-04 01:10 | 28.38991 | -100.67513 | 35076 ft | 460 kts | 15° |
| 2026-05-04 01:11 | 28.44719 | -100.64285 | 35082 ft | 460 kts | 15° |
| 2026-05-04 01:11 | 28.50446 | -100.61050 | 35090 ft | 460 kts | 15° |
| 2026-05-04 01:12 | 28.56174 | -100.57813 | 35130 ft | 459 kts | 16° |
| 2026-05-04 01:12 | 28.61875 | -100.54538 | 35128 ft | 463 kts | 20° |
| 2026-05-04 01:12 | 28.64567 | -100.52449 | 35124 ft | 475 kts | 30° |
| 2026-05-04 01:13 | 28.67068 | -100.49950 | 35123 ft | 478 kts | 33° |
| 2026-05-04 01:13 | 28.72032 | -100.44905 | 35103 ft | 478 kts | 32° |
| 2026-05-04 01:14 | 28.77009 | -100.39877 | 35086 ft | 478 kts | 32° |
| 2026-05-04 01:14 | 28.81981 | -100.34852 | 35065 ft | 478 kts | 32° |
| 2026-05-04 01:15 | 28.86949 | -100.29814 | 35062 ft | 478 kts | 32° |
| 2026-05-04 01:15 | 28.91919 | -100.24770 | 35053 ft | 478 kts | 32° |
| 2026-05-04 01:16 | 28.96893 | -100.19721 | 35059 ft | 478 kts | 32° |
| 2026-05-04 01:16 | 29.01826 | -100.14694 | 35060 ft | 478 kts | 32° |
| 2026-05-04 01:17 | 29.06785 | -100.09637 | 35062 ft | 477 kts | 32° |
| 2026-05-04 01:17 | 29.11741 | -100.04583 | 35062 ft | 477 kts | 32° |
| 2026-05-04 01:18 | 29.16689 | -99.99526 | 35080 ft | 477 kts | 31° |
| 2026-05-04 01:18 | 29.21637 | -99.94461 | 35076 ft | 477 kts | 32° |
| 2026-05-04 01:19 | 29.26574 | -99.89395 | 35067 ft | 477 kts | 32° |
| 2026-05-04 01:19 | 29.31511 | -99.84326 | 35061 ft | 477 kts | 32° |
| 2026-05-04 01:20 | 29.36415 | -99.79291 | 35076 ft | 476 kts | 31° |
| 2026-05-04 01:20 | 29.41343 | -99.74222 | 35072 ft | 476 kts | 31° |
| 2026-05-04 01:21 | 29.46266 | -99.69147 | 35068 ft | 475 kts | 31° |
| 2026-05-04 01:21 | 29.51190 | -99.64078 | 35089 ft | 476 kts | 31° |
| 2026-05-04 01:22 | 29.56119 | -99.58989 | 35070 ft | 476 kts | 31° |
| 2026-05-04 01:22 | 29.61038 | -99.53891 | 35066 ft | 476 kts | 31° |
| 2026-05-04 01:23 | 29.65962 | -99.48786 | 35059 ft | 477 kts | 31° |
| 2026-05-04 01:23 | 29.70884 | -99.43674 | 35074 ft | 476 kts | 31° |
| 2026-05-04 01:24 | 29.75799 | -99.38568 | 35074 ft | 476 kts | 31° |
| 2026-05-04 01:24 | 29.80718 | -99.33461 | 35125 ft | 476 kts | 32° |
| 2026-05-04 01:25 | 29.85633 | -99.28352 | 35121 ft | 476 kts | 32° |
| 2026-05-04 01:25 | 29.90538 | -99.23228 | 35123 ft | 476 kts | 32° |
| 2026-05-04 01:25 | 29.93091 | -99.20868 | 35124 ft | 464 kts | 23° |
| 2026-05-04 01:26 | 29.95794 | -99.18910 | 35124 ft | 459 kts | 20° |
| 2026-05-04 01:26 | 30.01245 | -99.15066 | 35121 ft | 459 kts | 20° |
| 2026-05-04 01:27 | 30.06694 | -99.11200 | 35120 ft | 460 kts | 21° |
| 2026-05-04 01:27 | 30.12105 | -99.07347 | 35137 ft | 460 kts | 20° |
| 2026-05-04 01:28 | 30.17556 | -99.03466 | 35108 ft | 460 kts | 20° |
| 2026-05-04 01:28 | 30.23000 | -98.99579 | 35089 ft | 460 kts | 20° |
| 2026-05-04 01:29 | 30.28451 | -98.95683 | 35063 ft | 461 kts | 20° |
| 2026-05-04 01:29 | 30.33905 | -98.91780 | 35068 ft | 461 kts | 20° |
| 2026-05-04 01:30 | 30.39354 | -98.87880 | 35068 ft | 461 kts | 20° |
| 2026-05-04 01:30 | 30.44805 | -98.83967 | 35067 ft | 461 kts | 20° |
| 2026-05-04 01:31 | 30.50256 | -98.80055 | 35076 ft | 461 kts | 20° |
| 2026-05-04 01:31 | 30.55704 | -98.76136 | 35086 ft | 461 kts | 20° |
| 2026-05-04 01:32 | 30.61155 | -98.72205 | 35090 ft | 461 kts | 20° |
| 2026-05-04 01:32 | 30.66602 | -98.68275 | 35128 ft | 460 kts | 20° |
| 2026-05-04 01:33 | 30.72039 | -98.64348 | 35136 ft | 460 kts | 20° |
| 2026-05-04 01:33 | 30.77474 | -98.60426 | 35130 ft | 460 kts | 20° |
| 2026-05-04 01:34 | 30.82905 | -98.56497 | 35124 ft | 459 kts | 20° |
| 2026-05-04 01:34 | 30.87406 | -98.53227 | 35111 ft | 459 kts | 20° |
| 2026-05-04 01:35 | 30.93708 | -98.48654 | 35100 ft | 459 kts | 20° |
| 2026-05-04 01:35 | 30.99124 | -98.44716 | 35120 ft | 459 kts | 20° |
| 2026-05-04 01:36 | 31.03664 | -98.41411 | 35107 ft | 459 kts | 20° |
| 2026-05-04 01:36 | 31.09085 | -98.37461 | 35098 ft | 459 kts | 20° |
| 2026-05-04 01:37 | 31.14465 | -98.33526 | 35095 ft | 459 kts | 20° |
| 2026-05-04 01:37 | 31.19878 | -98.29572 | 35095 ft | 459 kts | 20° |
| 2026-05-04 01:38 | 31.25287 | -98.25623 | 35091 ft | 458 kts | 20° |
| 2026-05-04 01:38 | 31.30689 | -98.21665 | 35104 ft | 458 kts | 20° |
| 2026-05-04 01:39 | 31.36084 | -98.17704 | 35078 ft | 453 kts | 20° |
| 2026-05-04 01:39 | 31.38714 | -98.15756 | 35072 ft | 441 kts | 20° |
| 2026-05-04 01:39 | 31.41263 | -98.13868 | 35079 ft | 425 kts | 18° |
| 2026-05-04 01:39 | 31.43839 | -98.12537 | 35082 ft | 387 kts | 1° |
| 2026-05-04 01:40 | 31.46398 | -98.12094 | 35074 ft | 361 kts | 347° |
| 2026-05-04 01:40 | 31.48827 | -98.12374 | 35078 ft | 342 kts | 335° |
| 2026-05-04 01:40 | 31.51040 | -98.13224 | 35075 ft | 329 kts | 325° |
| 2026-05-04 01:41 | 31.54641 | -98.16227 | 35087 ft | 313 kts | 307° |
| 2026-05-04 01:41 | 31.56948 | -98.20441 | 35070 ft | 307 kts | 290° |
| 2026-05-04 01:42 | 31.57727 | -98.25327 | 35067 ft | 312 kts | 274° |
| 2026-05-04 01:42 | 31.56827 | -98.30374 | 35060 ft | 327 kts | 255° |
| 2026-05-04 01:42 | 31.55719 | -98.32748 | 35058 ft | 339 kts | 245° |
| 2026-05-04 01:43 | 31.54149 | -98.34873 | 35040 ft | 354 kts | 234° |
| 2026-05-04 01:43 | 31.52129 | -98.36628 | 35007 ft | 371 kts | 222° |
| 2026-05-04 01:43 | 31.49704 | -98.37862 | 35045 ft | 392 kts | 208° |
| 2026-05-04 01:43 | 31.46989 | -98.38559 | 35049 ft | 404 kts | 202° |
| 2026-05-04 01:44 | 31.44193 | -98.39024 | 35056 ft | 409 kts | 199° |
| 2026-05-04 01:44 | 31.38488 | -98.39619 | 35058 ft | 412 kts | 197° |
| 2026-05-04 01:45 | 31.32787 | -98.40176 | 35064 ft | 410 kts | 198° |
| 2026-05-04 01:45 | 31.29908 | -98.40349 | 35064 ft | 423 kts | 188° |
| 2026-05-04 01:45 | 31.24137 | -98.37973 | 35040 ft | 466 kts | 149° |
| 2026-05-04 01:46 | 31.21806 | -98.35274 | 35047 ft | 479 kts | 128° |
| 2026-05-04 01:46 | 31.20279 | -98.31808 | 35081 ft | 484 kts | 105° |
| 2026-05-04 01:46 | 31.19758 | -98.27953 | 35081 ft | 480 kts | 83° |
| 2026-05-04 01:46 | 31.20249 | -98.24171 | 35082 ft | 465 kts | 63° |
| 2026-05-04 01:47 | 31.21602 | -98.20852 | 35081 ft | 443 kts | 43° |
| 2026-05-04 01:47 | 31.23596 | -98.18254 | 35083 ft | 418 kts | 26° |
| 2026-05-04 01:47 | 31.25968 | -98.16484 | 35081 ft | 394 kts | 10° |
| 2026-05-04 01:47 | 31.28496 | -98.15528 | 35080 ft | 374 kts | 358° |
| 2026-05-04 01:48 | 31.33580 | -98.14643 | 35075 ft | 366 kts | 352° |
| 2026-05-04 01:48 | 31.38613 | -98.14125 | 35073 ft | 365 kts | 352° |
| 2026-05-04 01:49 | 31.43625 | -98.14022 | 35067 ft | 341 kts | 335° |
| 2026-05-04 01:49 | 31.45753 | -98.14945 | 35069 ft | 323 kts | 321° |
| 2026-05-04 01:49 | 31.47506 | -98.16489 | 35060 ft | 311 kts | 308° |
| 2026-05-04 01:50 | 31.48774 | -98.18493 | 35054 ft | 304 kts | 295° |
| 2026-05-04 01:50 | 31.49513 | -98.20803 | 35049 ft | 304 kts | 283° |
| 2026-05-04 01:50 | 31.49691 | -98.23276 | 35046 ft | 308 kts | 271° |
| 2026-05-04 01:50 | 31.49272 | -98.25771 | 35044 ft | 319 kts | 258° |
| 2026-05-04 01:51 | 31.48224 | -98.28121 | 35042 ft | 335 kts | 244° |
| 2026-05-04 01:51 | 31.46524 | -98.30106 | 35044 ft | 358 kts | 227° |
| 2026-05-04 01:51 | 31.44215 | -98.31440 | 35042 ft | 387 kts | 208° |
| 2026-05-04 01:51 | 31.41508 | -98.32038 | 35043 ft | 401 kts | 201° |
| 2026-05-04 01:52 | 31.35905 | -98.32778 | 35047 ft | 408 kts | 198° |
| 2026-05-04 01:52 | 31.30144 | -98.32835 | 35046 ft | 438 kts | 175° |
| 2026-05-04 01:53 | 31.27304 | -98.31319 | 35043 ft | 463 kts | 150° |
| 2026-05-04 01:53 | 31.24983 | -98.28619 | 35035 ft | 480 kts | 126° |
| 2026-05-04 01:53 | 31.23559 | -98.25142 | 35086 ft | 485 kts | 102° |
| 2026-05-04 01:53 | 31.23188 | -98.21271 | 35080 ft | 476 kts | 78° |
| 2026-05-04 01:54 | 31.23938 | -98.17602 | 35082 ft | 455 kts | 54° |
| 2026-05-04 01:54 | 31.25634 | -98.14655 | 35080 ft | 424 kts | 31° |
| 2026-05-04 01:54 | 31.27956 | -98.12802 | 35091 ft | 388 kts | 6° |
| 2026-05-04 01:54 | 31.30462 | -98.12255 | 35076 ft | 351 kts | 343° |
| 2026-05-04 01:55 | 31.35212 | -98.13055 | 35074 ft | 346 kts | 339° |
| 2026-05-04 01:55 | 31.39983 | -98.13924 | 35076 ft | 350 kts | 342° |
| 2026-05-04 01:56 | 31.42461 | -98.13988 | 35072 ft | 364 kts | 350° |
| 2026-05-04 01:56 | 31.45031 | -98.13735 | 35037 ft | 378 kts | 354° |
| 2026-05-04 01:56 | 31.47699 | -98.13296 | 34788 ft | 396 kts | 356° |
| 2026-05-04 01:56 | 31.50469 | -98.12766 | 34555 ft | 411 kts | 357° |
| 2026-05-04 01:57 | 31.53343 | -98.12213 | 34320 ft | 425 kts | 358° |
| 2026-05-04 01:57 | 31.56293 | -98.11673 | 34117 ft | 430 kts | 357° |
| 2026-05-04 01:57 | 31.59260 | -98.11163 | 33802 ft | 430 kts | 357° |
| 2026-05-04 01:57 | 31.62236 | -98.10666 | 32989 ft | 436 kts | 360° |
| 2026-05-04 01:58 | 31.65193 | -98.09779 | 32619 ft | 443 kts | 8° |
| 2026-05-04 01:58 | 31.68051 | -98.08335 | 32077 ft | 454 kts | 18° |
| 2026-05-04 01:58 | 31.70795 | -98.06488 | 31529 ft | 454 kts | 20° |
| 2026-05-04 01:58 | 31.73515 | -98.04620 | 30980 ft | 452 kts | 21° |
| 2026-05-04 01:59 | 31.76218 | -98.02756 | 30422 ft | 449 kts | 21° |
| 2026-05-04 01:59 | 31.78909 | -98.00898 | 29834 ft | 447 kts | 21° |
| 2026-05-04 01:59 | 31.81581 | -97.99055 | 29282 ft | 443 kts | 21° |
| 2026-05-04 01:59 | 31.84230 | -97.97232 | 28757 ft | 439 kts | 22° |
| 2026-05-04 02:00 | 31.86854 | -97.95431 | 28251 ft | 435 kts | 22° |
| 2026-05-04 02:00 | 31.89464 | -97.93665 | 27763 ft | 430 kts | 21° |
| 2026-05-04 02:00 | 31.92060 | -97.91949 | 27279 ft | 425 kts | 21° |
| 2026-05-04 02:00 | 31.94633 | -97.90269 | 26805 ft | 421 kts | 21° |
| 2026-05-04 02:01 | 31.97185 | -97.88608 | 26356 ft | 417 kts | 21° |
| 2026-05-04 02:01 | 31.99714 | -97.86955 | 25893 ft | 414 kts | 22° |
| 2026-05-04 02:01 | 32.02220 | -97.85311 | 25474 ft | 411 kts | 22° |
| 2026-05-04 02:01 | 32.04702 | -97.83671 | 25046 ft | 408 kts | 23° |
| 2026-05-04 02:02 | 32.07137 | -97.82058 | 24626 ft | 406 kts | 23° |
| 2026-05-04 02:02 | 32.09623 | -97.80405 | 24200 ft | 404 kts | 24° |
| 2026-05-04 02:02 | 32.12033 | -97.78804 | 23785 ft | 402 kts | 24° |
| 2026-05-04 02:02 | 32.14463 | -97.77192 | 23299 ft | 400 kts | 24° |
| 2026-05-04 02:03 | 32.16878 | -97.75587 | 22851 ft | 397 kts | 25° |
| 2026-05-04 02:03 | 32.19280 | -97.73986 | 22324 ft | 395 kts | 25° |
| 2026-05-04 02:03 | 32.21662 | -97.72393 | 21822 ft | 393 kts | 25° |
| 2026-05-04 02:03 | 32.24039 | -97.70814 | 21325 ft | 390 kts | 24° |
| 2026-05-04 02:04 | 32.26434 | -97.69326 | 20831 ft | 387 kts | 22° |
| 2026-05-04 02:04 | 32.28836 | -97.67915 | 20328 ft | 385 kts | 22° |
| 2026-05-04 02:04 | 32.31237 | -97.66541 | 19838 ft | 382 kts | 22° |
| 2026-05-04 02:04 | 32.33623 | -97.65174 | 19350 ft | 380 kts | 22° |
| 2026-05-04 02:05 | 32.35997 | -97.63803 | 18866 ft | 379 kts | 22° |
| 2026-05-04 02:05 | 32.38282 | -97.62247 | 18385 ft | 380 kts | 32° |
| 2026-05-04 02:05 | 32.40286 | -97.60202 | 17916 ft | 380 kts | 42° |
| 2026-05-04 02:05 | 32.42175 | -97.58025 | 17380 ft | 377 kts | 42° |
| 2026-05-04 02:06 | 32.44045 | -97.55882 | 16970 ft | 372 kts | 41° |
| 2026-05-04 02:06 | 32.45892 | -97.53774 | 16633 ft | 367 kts | 41° |
| 2026-05-04 02:06 | 32.47724 | -97.51689 | 16375 ft | 364 kts | 41° |
| 2026-05-04 02:06 | 32.49547 | -97.49612 | 16107 ft | 363 kts | 42° |
| 2026-05-04 02:07 | 32.51362 | -97.47542 | 15873 ft | 361 kts | 42° |
| 2026-05-04 02:07 | 32.53169 | -97.45480 | 15616 ft | 360 kts | 42° |
| 2026-05-04 02:07 | 32.54968 | -97.43424 | 15360 ft | 359 kts | 42° |
| 2026-05-04 02:07 | 32.56740 | -97.41400 | 15111 ft | 357 kts | 42° |
| 2026-05-04 02:08 | 32.58527 | -97.39360 | 14619 ft | 359 kts | 43° |
| 2026-05-04 02:08 | 32.60332 | -97.37296 | 14159 ft | 358 kts | 43° |
| 2026-05-04 02:08 | 32.62102 | -97.35264 | 13891 ft | 350 kts | 43° |
| 2026-05-04 02:08 | 32.63819 | -97.33291 | 13758 ft | 337 kts | 43° |
| 2026-05-04 02:09 | 32.65474 | -97.31387 | 13623 ft | 326 kts | 43° |
| 2026-05-04 02:09 | 32.67079 | -97.29542 | 13431 ft | 318 kts | 43° |
| 2026-05-04 02:09 | 32.68661 | -97.27726 | 13114 ft | 315 kts | 43° |
| 2026-05-04 02:09 | 32.70230 | -97.25926 | 12798 ft | 312 kts | 43° |
| 2026-05-04 02:10 | 32.71779 | -97.24150 | 12577 ft | 308 kts | 43° |
| 2026-05-04 02:10 | 32.73313 | -97.22386 | 12440 ft | 306 kts | 43° |
| 2026-05-04 02:10 | 32.74835 | -97.20633 | 12301 ft | 301 kts | 43° |
| 2026-05-04 02:10 | 32.76317 | -97.18922 | 12172 ft | 293 kts | 43° |
| 2026-05-04 02:11 | 32.77925 | -97.17464 | 11664 ft | 296 kts | 25° |
| 2026-05-04 02:11 | 32.79896 | -97.16777 | 10910 ft | 298 kts | 1° |
| 2026-05-04 02:11 | 32.81948 | -97.17047 | 10141 ft | 299 kts | 343° |
| 2026-05-04 02:11 | 32.83987 | -97.17643 | 9331 ft | 304 kts | 343° |
| 2026-05-04 02:12 | 32.86047 | -97.18257 | 8650 ft | 304 kts | 343° |
| 2026-05-04 02:12 | 32.88067 | -97.18856 | 8230 ft | 295 kts | 343° |
| 2026-05-04 02:12 | 32.90025 | -97.19435 | 7844 ft | 286 kts | 343° |
| 2026-05-04 02:12 | 32.91929 | -97.20000 | 7464 ft | 278 kts | 343° |
| 2026-05-04 02:13 | 32.93783 | -97.20550 | 7107 ft | 271 kts | 343° |
| 2026-05-04 02:13 | 32.95586 | -97.21087 | 6764 ft | 265 kts | 342° |
| 2026-05-04 02:13 | 32.97356 | -97.21612 | 6408 ft | 259 kts | 342° |
| 2026-05-04 02:13 | 32.99087 | -97.22122 | 6049 ft | 253 kts | 342° |
| 2026-05-04 02:14 | 33.00764 | -97.22615 | 5727 ft | 244 kts | 342° |
| 2026-05-04 02:14 | 33.02377 | -97.23091 | 5413 ft | 234 kts | 342° |
| 2026-05-04 02:14 | 33.03930 | -97.23550 | 5112 ft | 226 kts | 342° |
| 2026-05-04 02:14 | 33.05423 | -97.23993 | 4859 ft | 219 kts | 342° |
| 2026-05-04 02:15 | 33.06907 | -97.24359 | 4556 ft | 217 kts | 354° |
| 2026-05-04 02:15 | 33.08287 | -97.23798 | 4384 ft | 208 kts | 42° |
| 2026-05-04 02:15 | 33.08972 | -97.22434 | 4232 ft | 187 kts | 86° |
| 2026-05-04 02:15 | 33.08861 | -97.21017 | 4094 ft | 162 kts | 121° |
| 2026-05-04 02:16 | 33.08237 | -97.20019 | 3973 ft | 144 kts | 150° |
| 2026-05-04 02:16 | 33.07371 | -97.19534 | 3863 ft | 134 kts | 174° |
| 2026-05-04 02:16 | 33.06452 | -97.19397 | 3764 ft | 133 kts | 178° |
| 2026-05-04 02:16 | 33.05533 | -97.19264 | 3654 ft | 133 kts | 177° |
| 2026-05-04 02:17 | 33.04613 | -97.19130 | 3536 ft | 133 kts | 177° |
| 2026-05-04 02:17 | 33.03696 | -97.18996 | 3433 ft | 133 kts | 177° |
| 2026-05-04 02:17 | 33.02781 | -97.18862 | 3332 ft | 132 kts | 178° |
| 2026-05-04 02:17 | 33.01872 | -97.18729 | 3227 ft | 132 kts | 176° |
| 2026-05-04 02:18 | 33.00975 | -97.18469 | 3104 ft | 137 kts | 159° |
| 2026-05-04 02:18 | 33.00230 | -97.17733 | 2939 ft | 138 kts | 150° |
| 2026-05-04 02:18 | 32.99481 | -97.17029 | 2779 ft | 137 kts | 148° |
| 2026-05-04 02:18 | 32.98747 | -97.16307 | 2608 ft | 137 kts | 147° |
| 2026-05-04 02:19 | 32.98026 | -97.15581 | 2437 ft | 135 kts | 147° |
| 2026-05-04 02:19 | 32.97324 | -97.14864 | 2276 ft | 130 kts | 147° |
| 2026-05-04 02:19 | 32.96641 | -97.14165 | 2102 ft | 128 kts | 146° |
| 2026-05-04 02:19 | 32.95967 | -97.13472 | 1935 ft | 127 kts | 147° |
| 2026-05-04 02:20 | 32.95303 | -97.12782 | 1749 ft | 127 kts | 146° |
| 2026-05-04 02:20 | 32.94638 | -97.12084 | 1543 ft | 128 kts | 144° |
| 2026-05-04 02:20 | 32.93944 | -97.11411 | 1394 ft | 128 kts | 139° |
| 2026-05-04 02:20 | 32.93272 | -97.10685 | 1202 ft | 131 kts | 144° |
| 2026-05-04 02:21 | 32.92580 | -97.09992 | 1039 ft | 131 kts | 144° |
| 2026-05-04 02:21 | 32.91913 | -97.09289 | 884 ft | 129 kts | 141° |
| 2026-05-04 02:21 | 32.91228 | -97.08600 | 783 ft | 129 kts | 136° |
| 2026-05-04 02:21 | 32.90569 | -97.07913 | 638 ft | 112 kts | 137° |
| 2026-05-04 02:22 | 32.90064 | -97.07396 | 629 ft | 77 kts | 139° |
| 2026-05-04 02:22 | 32.89793 | -97.07117 | 616 ft | 28 kts | 139° |
| 2026-05-04 02:22 | 32.89732 | -97.07053 | 616 ft | 10 kts | 133° |
| 2026-05-04 02:22 | 32.89666 | -97.06969 | 623 ft | 17 kts | 130° |
| 2026-05-04 02:23 | 32.89596 | -97.06841 | 620 ft | 19 kts | 105° |
| 2026-05-04 02:23 | 32.89550 | -97.06682 | 626 ft | 21 kts | 110° |
| 2026-05-04 02:23 | 32.89498 | -97.06512 | 625 ft | 23 kts | 110° |
| 2026-05-04 02:23 | 32.89437 | -97.06336 | 620 ft | 24 kts | 123° |
| 2026-05-04 02:24 | 32.89312 | -97.06202 | 618 ft | 25 kts | 140° |
| 2026-05-04 02:24 | 32.89179 | -97.06064 | 624 ft | 26 kts | 140° |
| 2026-05-04 02:24 | 32.89047 | -97.05915 | 625 ft | 24 kts | 106° |
| 2026-05-04 02:24 | 32.89047 | -97.05710 | 616 ft | 25 kts | 88° |
| 2026-05-04 02:25 | 32.89044 | -97.05496 | 616 ft | 26 kts | 90° |
| 2026-05-04 02:25 | 32.89042 | -97.05273 | 620 ft | 27 kts | 90° |
| 2026-05-04 02:25 | 32.89041 | -97.05042 | 616 ft | 28 kts | 91° |
| 2026-05-04 02:25 | 32.89042 | -97.04806 | 619 ft | 29 kts | 88° |
| 2026-05-04 02:26 | 32.89147 | -97.04765 | 623 ft | 18 kts | 358° |
| 2026-05-04 02:26 | 32.89275 | -97.04768 | 621 ft | 19 kts | 0° |
| 2026-05-04 02:26 | 32.89411 | -97.04765 | 619 ft | 20 kts | 360° |
| 2026-05-04 02:26 | 32.89520 | -97.04694 | 621 ft | 18 kts | 32° |
| 2026-05-04 02:27 | 32.89648 | -97.04668 | 623 ft | 19 kts | 358° |
| 2026-05-04 02:27 | 32.89714 | -97.04629 | 616 ft | 8 kts | 92° |
| 2026-05-04 02:27 | 32.89713 | -97.04581 | 616 ft | 8 kts | 91° |
| 2026-05-04 02:27 | 32.89713 | -97.04573 | 616 ft | 0 kts | 92° |